Time;durP1;ratioP1;P1;durP2;ratioP2;P2;SDS_P1;SDS_P2;PMS_P1;PMS_P2;Temp;Humidity;BMP_temperature;BMP_pressure;BME280_temperature;BME280_humidity;BME280_pressure;Samples;Min_cycle;Max_cycle;Signal;HPM_P1;HPM_P2
2024/03/22 01:19:01;;;;;;;2.88;2.67;;;11.40;92.60;;;;;;5082884;28;20246;-78
2024/03/22 01:21:27;;;;;;;0.47;0.47;;;11.40;91.40;;;;;;5085798;28;20172;-78
2024/03/22 01:23:53;;;;;;;0.70;0.70;;;11.50;92.60;;;;;;5084554;28;20280;-71
2024/03/22 01:26:18;;;;;;;0.30;0.20;;;11.50;92.60;;;;;;5085703;28;20176;-73
2024/03/22 01:28:44;;;;;;;0.30;0.20;;;11.50;92.70;;;;;;5084760;28;20275;-71
2024/03/22 01:31:10;;;;;;;0.30;0.20;;;11.50;92.50;;;;;;5085419;28;20172;-78
2024/03/22 01:33:35;;;;;;;0.30;0.20;;;11.40;92.00;;;;;;5085948;28;20188;-71
2024/03/22 01:36:01;;;;;;;0.30;0.30;;;11.40;92.60;;;;;;5085764;28;20182;-78
2024/03/22 01:38:26;;;;;;;0.67;0.67;;;11.40;92.20;;;;;;5085133;28;20192;-72
2024/03/22 01:40:52;;;;;;;0.30;0.20;;;11.40;92.30;;;;;;5086143;28;20196;-78
2024/03/22 01:43:18;;;;;;;0.40;0.40;;;11.40;92.90;;;;;;5085155;28;20285;-71
2024/03/22 01:45:43;;;;;;;1.67;1.57;;;11.40;92.80;;;;;;5085742;28;20209;-77
2024/03/22 01:48:09;;;;;;;3.40;2.27;;;11.30;93.20;;;;;;5085392;28;20273;-71
2024/03/22 01:50:35;;;;;;;0.30;0.23;;;11.30;92.80;;;;;;5086154;28;20405;-77
2024/03/22 01:53:01;;;;;;;0.30;0.30;;;11.30;92.80;;;;;;5084103;28;20450;-78
2024/03/22 01:55:28;;;;;;;2.63;2.53;;;11.20;92.60;;;;;;5083787;28;20639;-78
2024/03/22 01:57:55;;;;;;;0.30;0.20;;;11.20;92.80;;;;;;5085486;28;20195;-71
2024/03/22 02:00:21;;;;;;;0.30;0.20;;;11.10;92.60;;;;;;5084016;28;20646;-78
2024/03/22 02:02:46;;;;;;;0.40;0.30;;;11.10;93.00;;;;;;5085314;28;20195;-72
2024/03/22 02:05:19;;;;;;;0.40;0.33;;;11.10;93.30;;;;;;5085461;28;20192;-78
2024/03/22 02:07:46;;;;;;;0.30;0.20;;;11.00;93.40;;;;;;5085483;28;20192;-71
2024/03/22 02:10:12;;;;;;;1.73;1.63;;;10.90;93.80;;;;;;5085177;28;20180;-78
2024/03/22 02:12:39;;;;;;;1.40;1.40;;;10.90;93.60;;;;;;5085276;28;20719;-71
2024/03/22 02:15:05;;;;;;;2.70;2.45;;;10.80;93.50;;;;;;5085463;28;20265;-71
2024/03/22 02:17:32;;;;;;;0.30;0.30;;;10.80;93.60;;;;;;5084866;28;20494;-78
2024/03/22 02:19:58;;;;;;;2.15;2.05;;;10.80;93.40;;;;;;5084309;28;20497;-78
2024/03/22 02:22:24;;;;;;;0.30;0.20;;;10.80;94.30;;;;;;5084013;28;20418;-78
2024/03/22 02:24:50;;;;;;;0.30;0.20;;;10.80;94.30;;;;;;5085289;28;20236;-73
2024/03/22 02:27:15;;;;;;;0.30;0.20;;;10.70;94.30;;;;;;5083664;28;20185;-77
2024/03/22 02:29:41;;;;;;;0.40;0.40;;;10.70;94.20;;;;;;5085553;28;20508;-72
2024/03/22 02:32:07;;;;;;;0.30;0.20;;;10.70;93.80;;;;;;5084686;28;20176;-72
2024/03/22 02:34:32;;;;;;;0.30;0.20;;;10.70;94.00;;;;;;5083797;28;20337;-78
2024/03/22 02:36:58;;;;;;;0.50;0.50;;;10.60;94.20;;;;;;5085131;28;20347;-72
2024/03/22 02:39:25;;;;;;;0.30;0.20;;;10.60;94.30;;;;;;5084972;28;20203;-79
2024/03/22 02:41:50;;;;;;;0.95;0.95;;;10.50;94.30;;;;;;5083580;28;20215;-78
2024/03/22 02:44:16;;;;;;;0.30;0.20;;;10.50;94.30;;;;;;5084866;28;20665;-78
2024/03/22 02:46:42;;;;;;;0.30;0.20;;;10.40;94.30;;;;;;5085049;28;20536;-79
2024/03/22 02:49:08;;;;;;;0.30;0.30;;;10.40;94.20;;;;;;5085078;28;20433;-72
2024/03/22 02:51:33;;;;;;;0.30;0.20;;;10.40;94.40;;;;;;5084760;28;20184;-72
2024/03/22 02:53:59;;;;;;;0.40;0.40;;;10.30;94.40;;;;;;5084979;28;20227;-79
2024/03/22 02:56:24;;;;;;;3.97;2.33;;;10.30;94.30;;;;;;5084176;28;20314;-78
2024/03/22 02:58:50;;;;;;;0.30;0.20;;;10.20;94.10;;;;;;5083500;28;20201;-74
2024/03/22 03:01:16;;;;;;;0.30;0.20;;;10.20;94.00;;;;;;5087605;28;20172;-72
2024/03/22 03:03:41;;;;;;;0.30;0.20;;;10.20;93.70;;;;;;5088797;28;20207;-79
2024/03/22 03:06:08;;;;;;;3.23;3.13;;;10.20;94.80;;;;;;5086835;28;20642;-72
2024/03/22 03:08:34;;;;;;;0.30;0.20;;;10.20;94.60;;;;;;5086987;28;20276;-72
2024/03/22 03:10:59;;;;;;;0.30;0.30;;;10.10;94.60;;;;;;5088375;28;20723;-77
2024/03/22 03:13:26;;;;;;;0.30;0.20;;;10.10;94.60;;;;;;5086818;28;20200;-72
2024/03/22 03:15:51;;;;;;;0.40;0.40;;;10.20;94.10;;;;;;5086871;28;20279;-78
2024/03/22 03:18:17;;;;;;;0.30;0.20;;;10.20;94.20;;;;;;5088056;28;20323;-72
2024/03/22 03:20:43;;;;;;;0.30;0.20;;;10.20;95.00;;;;;;5086204;28;20183;-78
2024/03/22 03:23:09;;;;;;;0.30;0.20;;;10.20;95.00;;;;;;5087829;28;20691;-79
2024/03/22 03:25:34;;;;;;;0.30;0.30;;;10.20;94.60;;;;;;5088430;28;20176;-76
2024/03/22 03:28:00;;;;;;;3.37;3.20;;;10.10;94.30;;;;;;5087958;28;20203;-72
2024/03/22 03:30:25;;;;;;;1.60;1.50;;;10.10;95.00;;;;;;5086454;28;20176;-76
2024/03/22 03:32:52;;;;;;;1.07;1.07;;;10.10;95.00;;;;;;5088058;28;20204;-78
2024/03/22 03:35:17;;;;;;;0.30;0.20;;;10.10;94.90;;;;;;5086278;28;20213;-78
2024/03/22 03:37:43;;;;;;;0.30;0.20;;;10.00;94.90;;;;;;5088051;28;20203;-72
2024/03/22 03:40:09;;;;;;;0.30;0.20;;;9.90;94.70;;;;;;5087836;28;20477;-78
2024/03/22 03:42:34;;;;;;;0.40;0.40;;;9.90;94.90;;;;;;5087897;28;20837;-79
2024/03/22 03:45:00;;;;;;;0.40;0.40;;;10.00;94.80;;;;;;5088195;28;20250;-72
2024/03/22 03:47:26;;;;;;;0.30;0.30;;;10.10;94.70;;;;;;5086063;28;20734;-78
2024/03/22 03:49:52;;;;;;;0.30;0.20;;;10.10;94.50;;;;;;5087788;28;20558;-72
2024/03/22 03:52:18;;;;;;;2.50;2.40;;;10.20;94.40;;;;;;5087500;28;20173;-79
2024/03/22 03:54:43;;;;;;;0.30;0.20;;;10.20;94.40;;;;;;5088133;28;20574;-78
2024/03/22 03:57:09;;;;;;;0.30;0.20;;;10.20;94.30;;;;;;5086765;28;20625;-79
2024/03/22 03:59:35;;;;;;;0.30;0.20;;;10.30;94.20;;;;;;5087788;28;20181;-72
2024/03/22 04:02:00;;;;;;;1.17;1.17;;;10.30;94.20;;;;;;5086974;28;20259;-72
2024/03/22 04:04:26;;;;;;;0.30;0.20;;;10.30;94.10;;;;;;5087443;28;20329;-72
2024/03/22 04:06:52;;;;;;;0.30;0.30;;;10.30;94.10;;;;;;5085877;28;20408;-78
2024/03/22 04:09:17;;;;;;;0.30;0.20;;;10.30;94.00;;;;;;5087236;28;20762;-78
2024/03/22 04:11:44;;;;;;;0.30;0.20;;;10.30;94.00;;;;;;5086124;28;20164;-71
2024/03/22 04:14:10;;;;;;;0.30;0.20;;;10.40;94.10;;;;;;5087040;28;20217;-72
2024/03/22 04:16:35;;;;;;;0.30;0.20;;;10.40;94.10;;;;;;5085562;28;20650;-72
2024/03/22 04:19:01;;;;;;;0.30;0.20;;;10.40;94.00;;;;;;5087402;28;20969;-80
2024/03/22 04:21:27;;;;;;;0.90;0.90;;;10.40;94.00;;;;;;5086867;28;20626;-73
2024/03/22 04:23:52;;;;;;;0.30;0.20;;;10.40;94.00;;;;;;5084859;28;20199;-78
2024/03/22 04:26:18;;;;;;;0.30;0.20;;;10.40;93.80;;;;;;5087158;28;20201;-73
2024/03/22 04:28:43;;;;;;;0.30;0.20;;;10.40;93.90;;;;;;5087118;28;20719;-79
2024/03/22 04:31:09;;;;;;;2.33;2.23;;;10.30;93.60;;;;;;5086450;28;20176;-73
2024/03/22 04:33:36;;;;;;;0.57;0.53;;;10.30;93.60;;;;;;5087045;28;20225;-72
2024/03/22 04:36:02;;;;;;;0.30;0.20;;;10.20;93.50;;;;;;5086916;28;20173;-72
2024/03/22 04:38:29;;;;;;;0.30;0.20;;;10.20;93.70;;;;;;5086491;28;20203;-77
2024/03/22 04:40:56;;;;;;;0.30;0.20;;;10.20;93.90;;;;;;5086991;28;20554;-73
2024/03/22 04:43:22;;;;;;;0.30;0.20;;;10.10;94.10;;;;;;5086690;28;20206;-72
2024/03/22 04:45:48;;;;;;;0.30;0.30;;;10.10;94.00;;;;;;5085305;28;20641;-72
2024/03/22 04:48:18;;;;;;;0.30;0.20;;;10.10;94.40;;;;;;5084803;28;20261;-73
2024/03/22 04:50:51;;;;;;;0.30;0.20;;;10.00;94.60;;;;;;5086530;28;20234;-72
2024/03/22 04:53:18;;;;;;;0.30;0.30;;;9.80;94.60;;;;;;5086468;28;20203;-72
2024/03/22 04:55:44;;;;;;;0.30;0.20;;;9.70;94.70;;;;;;5085055;28;20208;-78
2024/03/22 04:58:20;;;;;;;0.30;0.20;;;9.60;94.90;;;;;;5085531;28;20596;-77
2024/03/22 05:00:47;;;;;;;1.30;1.27;;;9.50;95.10;;;;;;5084641;28;20175;-72
2024/03/22 05:03:13;;;;;;;0.30;0.20;;;9.50;95.30;;;;;;5086145;28;20557;-78
2024/03/22 05:05:40;;;;;;;0.30;0.20;;;9.50;95.70;;;;;;5086448;28;20183;-72
2024/03/22 05:08:06;;;;;;;0.30;0.20;;;9.40;96.20;;;;;;5083640;28;20862;-72
2024/03/22 05:10:32;;;;;;;0.30;0.20;;;9.50;96.50;;;;;;5085931;28;20180;-72
2024/03/22 05:12:58;;;;;;;0.50;0.50;;;9.40;96.60;;;;;;5085843;28;20215;-78
2024/03/22 05:15:28;;;;;;;0.30;0.20;;;9.50;96.00;;;;;;5084254;28;20464;-72
2024/03/22 05:17:55;;;;;;;0.30;0.20;;;9.50;95.70;;;;;;5085326;28;20238;-78
2024/03/22 05:20:21;;;;;;;3.35;3.10;;;9.50;95.90;;;;;;5086007;28;20177;-72
2024/03/22 05:22:47;;;;;;;1.47;1.47;;;9.50;96.30;;;;;;5082490;28;20211;-72
2024/03/22 05:25:14;;;;;;;0.30;0.20;;;9.50;96.00;;;;;;5085580;28;20164;-72
2024/03/22 05:27:40;;;;;;;2.40;2.30;;;9.60;95.80;;;;;;5085217;28;20207;-72
2024/03/22 05:30:07;;;;;;;0.40;0.40;;;9.50;95.90;;;;;;5085340;28;20563;-75
2024/03/22 05:32:33;;;;;;;0.30;0.20;;;9.60;96.30;;;;;;5083822;28;20390;-72
2024/03/22 05:34:58;;;;;;;0.53;0.53;;;9.60;96.30;;;;;;5085521;28;20563;-78
2024/03/22 05:37:24;;;;;;;0.30;0.20;;;9.70;97.00;;;;;;5083205;28;20184;-72
2024/03/22 05:39:49;;;;;;;0.30;0.30;;;9.70;96.40;;;;;;5085130;28;20207;-74
2024/03/22 05:42:15;;;;;;;0.30;0.20;;;9.80;96.90;;;;;;5085273;28;20626;-75
2024/03/22 05:44:41;;;;;;;0.30;0.20;;;9.80;96.40;;;;;;5083778;28;20457;-73
2024/03/22 05:47:07;;;;;;;0.30;0.20;;;9.90;96.30;;;;;;5085052;28;21010;-73
2024/03/22 05:49:32;;;;;;;0.30;0.20;;;10.00;96.20;;;;;;5085192;28;20215;-77
2024/03/22 05:51:58;;;;;;;0.83;0.83;;;10.10;96.40;;;;;;5083642;28;20189;-73
2024/03/22 05:54:24;;;;;;;0.30;0.20;;;10.20;96.50;;;;;;5083472;28;20490;-73
2024/03/22 05:56:50;;;;;;;0.50;0.50;;;10.30;96.70;;;;;;5083222;28;20774;-73
2024/03/22 05:59:16;;;;;;;0.30;0.20;;;10.40;96.90;;;;;;5083361;28;20196;-78
2024/03/22 06:01:41;;;;;;;0.37;0.20;;;10.40;96.80;;;;;;5081724;28;20194;-72
2024/03/22 06:04:07;;;;;;;0.30;0.20;;;10.50;96.80;;;;;;5082780;28;20290;-78
2024/03/22 06:06:34;;;;;;;0.50;0.50;;;10.50;97.20;;;;;;5082725;28;20173;-78
2024/03/22 06:09:03;;;;;;;0.98;0.98;;;10.50;97.10;;;;;;5083145;28;20295;-78
2024/03/22 06:11:29;;;;;;;0.30;0.20;;;10.60;97.50;;;;;;5082735;28;20165;-78
2024/03/22 06:13:55;;;;;;;0.30;0.20;;;10.70;97.60;;;;;;5082949;28;20298;-72
2024/03/22 06:16:21;;;;;;;0.30;0.20;;;10.80;96.90;;;;;;5080975;28;20490;-72
2024/03/22 06:18:46;;;;;;;0.50;0.50;;;10.80;96.80;;;;;;5078784;28;20315;-78
2024/03/22 06:21:14;;;;;;;18.60;9.60;;;10.90;97.00;;;;;;5084149;28;20593;-73
2024/03/22 06:23:40;;;;;;;0.30;0.20;;;11.00;97.00;;;;;;5083833;28;20231;-78
2024/03/22 06:26:05;;;;;;;0.30;0.30;;;11.00;96.80;;;;;;5082800;28;20709;-72
2024/03/22 06:28:31;;;;;;;1.03;1.03;;;11.10;96.60;;;;;;5082064;28;20214;-78
2024/03/22 06:30:56;;;;;;;0.30;0.20;;;11.10;96.80;;;;;;5084461;28;20186;-72
2024/03/22 06:33:22;;;;;;;0.30;0.30;;;11.20;96.60;;;;;;5075631;28;20744;-73
2024/03/22 06:35:48;;;;;;;0.30;0.20;;;11.30;97.10;;;;;;5083030;28;20288;-78
2024/03/22 06:38:14;;;;;;;0.50;0.50;;;11.40;96.80;;;;;;5087962;28;20557;-73
2024/03/22 06:40:39;;;;;;;1.00;0.97;;;11.50;96.60;;;;;;5083152;28;20180;-77
2024/03/22 06:43:05;;;;;;;3.87;2.63;;;11.70;96.70;;;;;;5084118;28;20455;-78
2024/03/22 06:45:31;;;;;;;1.87;1.80;;;11.90;96.30;;;;;;5084329;28;20747;-72
2024/03/22 06:47:56;;;;;;;0.30;0.20;;;12.00;95.90;;;;;;5080084;28;20208;-78
2024/03/22 06:50:24;;;;;;;0.30;0.30;;;12.20;95.80;;;;;;5081348;28;20276;-72
2024/03/22 06:52:51;;;;;;;0.30;0.20;;;12.30;95.50;;;;;;5079489;28;20927;-73
2024/03/22 06:55:17;;;;;;;11.47;10.27;;;12.50;95.60;;;;;;5084150;28;20205;-73
2024/03/22 06:57:44;;;;;;;9.47;8.97;;;12.60;95.40;;;;;;5081984;28;20437;-73
2024/03/22 07:00:11;;;;;;;0.30;0.30;;;12.80;95.80;;;;;;5071747;28;20417;-72
2024/03/22 07:02:37;;;;;;;3.20;3.10;;;12.90;96.10;;;;;;5070505;28;20589;-73
2024/03/22 07:05:03;;;;;;;0.70;0.70;;;13.00;96.40;;;;;;5077810;28;20969;-73
2024/03/22 07:07:29;;;;;;;4.00;3.70;;;13.20;96.70;;;;;;5073459;28;20661;-78
2024/03/22 07:09:56;;;;;;;0.73;0.73;;;13.30;97.20;;;;;;5076725;28;20459;-78
2024/03/22 07:12:22;;;;;;;0.30;0.20;;;13.60;97.20;;;;;;5076041;28;20220;-78
2024/03/22 07:14:48;;;;;;;0.30;0.20;;;13.80;97.30;;;;;;5074959;28;21020;-73
2024/03/22 07:17:15;;;;;;;0.30;0.20;;;13.90;97.40;;;;;;5067574;28;20680;-73
2024/03/22 07:19:40;;;;;;;0.40;0.20;;;14.10;97.50;;;;;;5065559;28;20266;-78
2024/03/22 07:22:07;;;;;;;1.90;0.97;;;14.30;97.60;;;;;;5067569;28;20993;-79
2024/03/22 07:24:32;;;;;;;0.67;0.67;;;14.40;97.80;;;;;;5076063;28;20425;-79
2024/03/22 07:26:58;;;;;;;0.70;0.70;;;14.50;97.90;;;;;;5078741;28;20437;-73
2024/03/22 07:29:24;;;;;;;1.50;1.43;;;14.50;98.10;;;;;;5082682;28;20416;-73
2024/03/22 07:31:49;;;;;;;1.00;1.00;;;14.60;98.30;;;;;;5084702;28;20391;-77
2024/03/22 07:34:15;;;;;;;0.37;0.30;;;14.60;98.40;;;;;;5083144;28;20216;-73
2024/03/22 07:36:41;;;;;;;1.00;0.97;;;14.70;98.60;;;;;;5077082;28;20566;-79
2024/03/22 07:39:07;;;;;;;0.50;0.50;;;14.80;98.80;;;;;;5080411;28;20336;-74
2024/03/22 07:41:33;;;;;;;0.50;0.50;;;14.80;98.80;;;;;;5071656;28;20428;-74
2024/03/22 07:44:02;;;;;;;0.40;0.40;;;14.80;98.60;;;;;;5081479;28;20875;-79
2024/03/22 07:46:28;;;;;;;1.10;1.03;;;14.90;98.70;;;;;;5068151;28;20512;-74
2024/03/22 07:48:54;;;;;;;1.50;1.43;;;14.90;98.70;;;;;;5080193;28;20563;-78
2024/03/22 07:51:20;;;;;;;0.40;0.37;;;14.90;98.80;;;;;;5075957;28;20457;-73
2024/03/22 07:53:46;;;;;;;0.93;0.93;;;15.00;99.10;;;;;;5075076;28;20455;-79
2024/03/22 07:56:12;;;;;;;0.40;0.40;;;15.00;99.30;;;;;;5080684;28;20954;-79
2024/03/22 07:58:39;;;;;;;0.40;0.37;;;15.00;99.30;;;;;;5066702;28;20347;-79
2024/03/22 08:01:05;;;;;;;1.60;1.10;;;15.10;99.70;;;;;;5080575;28;20417;-73
2024/03/22 08:03:30;;;;;;;0.30;0.20;;;15.20;99.50;;;;;;5076466;28;20529;-79
2024/03/22 08:05:56;;;;;;;0.30;0.20;;;15.30;99.40;;;;;;5082831;28;21005;-77
2024/03/22 08:08:22;;;;;;;0.53;0.53;;;15.40;99.60;;;;;;5078421;28;20249;-78
2024/03/22 08:10:48;;;;;;;1.03;1.03;;;15.40;99.70;;;;;;5081920;28;20204;-79
2024/03/22 08:13:13;;;;;;;3.70;3.40;;;15.50;99.60;;;;;;5080737;28;20279;-74
2024/03/22 08:15:39;;;;;;;0.30;0.20;;;15.60;99.70;;;;;;5081662;28;20697;-75
2024/03/22 08:18:05;;;;;;;0.40;0.40;;;15.70;99.60;;;;;;5077038;28;20256;-79
2024/03/22 08:20:33;;;;;;;0.60;0.60;;;15.80;99.80;;;;;;5079670;28;20441;-74
2024/03/22 08:22:59;;;;;;;0.40;0.30;;;15.90;99.60;;;;;;5094956;28;20480;-73
2024/03/22 08:25:25;;;;;;;2.30;2.10;;;16.00;99.50;;;;;;5076381;28;20714;-73
2024/03/22 08:27:55;;;;;;;0.63;0.63;;;16.10;99.60;;;;;;5073207;28;20704;-73
2024/03/22 08:30:21;;;;;;;0.30;0.20;;;16.20;99.70;;;;;;5081571;28;20220;-73
2024/03/22 08:32:47;;;;;;;0.40;0.40;;;16.30;99.30;;;;;;5083987;28;20455;-72
2024/03/22 08:35:13;;;;;;;0.30;0.20;;;16.50;99.10;;;;;;5082206;28;20468;-78
2024/03/22 08:37:39;;;;;;;0.40;0.40;;;16.60;99.10;;;;;;5083592;28;20935;-73
2024/03/22 08:40:05;;;;;;;0.30;0.30;;;16.80;99.20;;;;;;5085185;28;20188;-77
2024/03/22 08:42:30;;;;;;;1.03;1.03;;;17.00;98.70;;;;;;5082550;28;20196;-73
2024/03/22 08:44:56;;;;;;;0.60;0.60;;;17.10;98.30;;;;;;5081631;28;20439;-78
2024/03/22 08:47:23;;;;;;;3.70;3.50;;;17.30;98.20;;;;;;5078032;28;20655;-78
2024/03/22 08:49:49;;;;;;;2.50;2.30;;;17.40;98.20;;;;;;5081925;28;20208;-73
2024/03/22 08:52:15;;;;;;;5.03;3.50;;;17.40;97.70;;;;;;5079685;28;20422;-79
2024/03/22 08:54:40;;;;;;;0.63;0.57;;;17.50;97.60;;;;;;5079412;28;20467;-79
2024/03/22 08:57:06;;;;;;;2.50;2.40;;;17.70;97.80;;;;;;5082328;28;20429;-73
2024/03/22 08:59:32;;;;;;;2.60;1.80;;;17.80;97.60;;;;;;5077271;28;20569;-73
2024/03/22 09:01:59;;;;;;;2.73;2.57;;;18.00;97.50;;;;;;5074722;28;20484;-73
2024/03/22 09:04:25;;;;;;;0.50;0.50;;;18.10;96.90;;;;;;5068708;28;20261;-73
2024/03/22 09:06:51;;;;;;;0.30;0.20;;;18.10;96.90;;;;;;5071593;28;20957;-79
2024/03/22 09:09:17;;;;;;;0.30;0.20;;;18.20;97.10;;;;;;5074018;28;20210;-78
2024/03/22 09:11:43;;;;;;;0.40;0.30;;;18.20;96.90;;;;;;5073710;28;20185;-78
2024/03/22 09:14:08;;;;;;;0.40;0.37;;;18.20;96.90;;;;;;5077798;28;20477;-73
2024/03/22 09:16:34;;;;;;;0.30;0.20;;;18.20;96.80;;;;;;5076145;28;20422;-79
2024/03/22 09:19:00;;;;;;;15.57;14.80;;;18.10;96.60;;;;;;5077952;28;20315;-73
2024/03/22 09:21:25;;;;;;;0.73;0.73;;;18.10;96.70;;;;;;5075908;28;20484;-78
2024/03/22 09:23:51;;;;;;;1.27;1.17;;;18.00;96.80;;;;;;5079114;28;20219;-79
2024/03/22 09:26:17;;;;;;;0.30;0.30;;;17.90;96.90;;;;;;5073544;28;20315;-78
2024/03/22 09:28:45;;;;;;;0.40;0.30;;;17.90;96.90;;;;;;5080522;28;20201;-73
2024/03/22 09:31:11;;;;;;;2.87;2.77;;;17.80;97.20;;;;;;5074020;28;20560;-79
2024/03/22 09:33:36;;;;;;;4.33;4.00;;;17.80;97.40;;;;;;5077185;28;20553;-73
2024/03/22 09:36:03;;;;;;;3.80;3.60;;;17.80;97.60;;;;;;5077444;28;20207;-78
2024/03/22 09:38:28;;;;;;;1.80;1.70;;;17.80;97.80;;;;;;5076323;28;20229;-78
2024/03/22 09:40:54;;;;;;;1.33;1.23;;;17.80;97.90;;;;;;5079900;28;20794;-78
2024/03/22 09:43:21;;;;;;;0.93;0.93;;;17.80;98.00;;;;;;5080378;28;20585;-73
2024/03/22 09:45:50;;;;;;;0.40;0.20;;;17.90;98.20;;;;;;5071159;28;21078;-73
2024/03/22 09:48:19;;;;;;;2.57;2.43;;;17.90;98.10;;;;;;5077902;28;20963;-73
2024/03/22 09:50:49;;;;;;;1.27;1.17;;;17.90;98.00;;;;;;5068032;28;20435;-73
2024/03/22 09:53:19;;;;;;;1.00;1.00;;;18.00;98.10;;;;;;5074965;28;20453;-73
2024/03/22 09:55:47;;;;;;;0.63;0.63;;;18.00;97.90;;;;;;5074565;28;20485;-73
2024/03/22 09:58:13;;;;;;;1.60;1.50;;;18.00;97.80;;;;;;5074408;28;20459;-73
2024/03/22 10:00:38;;;;;;;0.47;0.47;;;18.00;97.80;;;;;;5072805;28;20434;-78
2024/03/22 10:03:05;;;;;;;0.93;0.83;;;18.00;97.80;;;;;;5075774;28;20208;-79
2024/03/22 10:05:31;;;;;;;0.50;0.50;;;18.00;97.80;;;;;;5076253;28;20486;-73
2024/03/22 10:07:57;;;;;;;0.40;0.40;;;18.00;98.00;;;;;;5077512;28;20459;-78
2024/03/22 10:10:23;;;;;;;0.33;0.20;;;18.00;97.90;;;;;;5076456;28;20726;-79
2024/03/22 10:12:49;;;;;;;0.30;0.20;;;17.90;97.80;;;;;;5079051;28;20454;-78
2024/03/22 10:15:16;;;;;;;2.00;1.90;;;17.90;97.80;;;;;;5080989;28;20499;-73
2024/03/22 10:17:42;;;;;;;0.40;0.37;;;17.90;98.00;;;;;;5081224;28;20858;-79
2024/03/22 10:20:13;;;;;;;0.30;0.20;;;17.80;98.00;;;;;;5084433;28;20436;-78
2024/03/22 10:22:43;;;;;;;0.30;0.20;;;17.80;98.00;;;;;;5080206;28;20569;-79
2024/03/22 10:25:10;;;;;;;1.23;1.23;;;17.80;98.30;;;;;;5085737;28;20435;-73
2024/03/22 10:27:38;;;;;;;0.30;0.20;;;17.70;98.20;;;;;;5084327;28;21015;-78
2024/03/22 10:30:08;;;;;;;0.50;0.50;;;17.70;98.50;;;;;;5084553;28;20482;-73
2024/03/22 10:32:35;;;;;;;0.60;0.60;;;17.70;98.40;;;;;;5079308;28;20466;-78
2024/03/22 10:35:05;;;;;;;0.67;0.67;;;17.70;98.80;;;;;;5080425;28;20462;-73
2024/03/22 10:37:34;;;;;;;2.30;0.67;;;17.80;98.70;;;;;;5082310;28;20436;-73
2024/03/22 10:40:07;;;;;;;0.30;0.20;;;17.80;98.50;;;;;;5082556;28;20464;-78
2024/03/22 10:42:36;;;;;;;0.30;0.20;;;17.80;98.60;;;;;;5083383;28;20445;-79
2024/03/22 10:45:03;;;;;;;3.90;2.40;;;17.90;98.40;;;;;;5078136;28;20966;-79
2024/03/22 10:47:30;;;;;;;0.60;0.60;;;17.90;98.40;;;;;;5082125;28;20463;-78
2024/03/22 10:50:08;;;;;;;1.23;1.23;;;18.00;98.40;;;;;;5081689;28;20442;-73
2024/03/22 10:52:39;;;;;;;0.30;0.27;;;18.00;98.10;;;;;;5082756;28;20476;-73
2024/03/22 10:55:15;;;;;;;1.27;1.27;;;18.10;98.40;;;;;;5075966;28;20471;-80
2024/03/22 10:57:41;;;;;;;0.40;0.40;;;18.30;98.50;;;;;;5074575;28;20505;-73
2024/03/22 11:00:10;;;;;;;1.30;1.30;;;18.40;98.50;;;;;;5077295;28;20951;-73
2024/03/22 11:02:37;;;;;;;3.37;3.17;;;18.60;98.40;;;;;;5078394;28;20450;-73
2024/03/22 11:05:04;;;;;;;0.40;0.40;;;18.70;98.20;;;;;;5074530;28;20937;-73
2024/03/22 11:07:30;;;;;;;0.30;0.30;;;18.90;98.20;;;;;;5069121;28;21007;-73
2024/03/22 11:09:57;;;;;;;0.30;0.20;;;19.00;97.90;;;;;;5100826;27;20452;-78
2024/03/22 11:12:25;;;;;;;0.30;0.20;;;19.20;97.00;;;;;;5068054;28;20424;-78
2024/03/22 11:14:51;;;;;;;1.37;1.27;;;19.30;96.50;;;;;;5080798;28;20866;-78
2024/03/22 11:17:17;;;;;;;0.40;0.30;;;19.50;96.40;;;;;;5078449;28;20856;-79
2024/03/22 11:19:43;;;;;;;0.50;0.50;;;19.60;96.40;;;;;;5083042;28;20427;-78
2024/03/22 11:22:11;;;;;;;0.30;0.20;;;19.70;95.70;;;;;;5080002;28;21013;-73
2024/03/22 11:24:40;;;;;;;0.60;0.60;;;19.90;95.50;;;;;;5083258;28;20207;-73
2024/03/22 11:27:06;;;;;;;0.30;0.20;;;20.00;95.80;;;;;;5085798;28;20515;-73
2024/03/22 11:29:31;;;;;;;0.43;0.43;;;20.10;95.60;;;;;;5085168;28;20512;-73
2024/03/22 11:31:57;;;;;;;3.17;2.87;;;20.20;95.10;;;;;;5077743;28;20312;-79
2024/03/22 11:34:23;;;;;;;0.40;0.30;;;20.30;94.70;;;;;;5079923;28;20622;-79
2024/03/22 11:36:50;;;;;;;0.40;0.20;;;20.30;94.40;;;;;;5079233;28;20202;-74
2024/03/22 11:39:17;;;;;;;0.40;0.37;;;20.30;94.50;;;;;;5068046;28;20193;-78
2024/03/22 11:41:44;;;;;;;1.90;1.80;;;20.40;94.60;;;;;;5068272;28;20435;-73
2024/03/22 11:44:09;;;;;;;1.33;1.23;;;20.40;94.60;;;;;;5083603;28;20452;-73
2024/03/22 11:46:35;;;;;;;0.60;0.60;;;20.40;94.30;;;;;;5077798;28;20432;-73
2024/03/22 11:49:01;;;;;;;0.30;0.20;;;20.40;94.40;;;;;;5084548;28;20612;-74
2024/03/22 11:51:27;;;;;;;0.43;0.43;;;20.40;94.30;;;;;;5080874;28;20177;-73
2024/03/22 11:53:55;;;;;;;0.93;0.93;;;20.40;94.20;;;;;;5079867;28;20743;-73
2024/03/22 11:56:21;;;;;;;0.40;0.40;;;20.40;94.30;;;;;;5082165;28;20420;-79
2024/03/22 11:58:48;;;;;;;1.50;1.43;;;20.40;94.20;;;;;;5075560;28;20841;-79
2024/03/22 12:01:20;;;;;;;0.30;0.20;;;20.40;94.80;;;;;;5075099;28;20180;-79
2024/03/22 12:03:47;;;;;;;0.30;0.30;;;20.40;94.60;;;;;;5076887;28;20867;-73
2024/03/22 12:06:14;;;;;;;0.30;0.20;;;20.30;94.30;;;;;;5072868;28;20687;-79
2024/03/22 12:08:40;;;;;;;0.30;0.30;;;20.30;94.50;;;;;;5070885;28;20448;-73
2024/03/22 12:11:08;;;;;;;0.50;0.50;;;20.40;94.60;;;;;;5073265;28;20757;-73
2024/03/22 12:13:34;;;;;;;0.30;0.20;;;20.50;94.50;;;;;;5073766;28;20444;-73
2024/03/22 12:16:01;;;;;;;21.97;3.80;;;20.50;94.50;;;;;;5074518;28;20481;-73
2024/03/22 12:18:27;;;;;;;0.40;0.30;;;20.50;94.30;;;;;;5076472;28;20615;-73
2024/03/22 12:20:53;;;;;;;0.30;0.20;;;20.50;94.20;;;;;;5086677;28;20413;-79
2024/03/22 12:23:18;;;;;;;0.80;0.80;;;20.50;94.30;;;;;;5072272;28;20576;-79
2024/03/22 12:25:44;;;;;;;0.73;0.73;;;20.60;94.40;;;;;;5075448;28;20172;-79
2024/03/22 12:28:11;;;;;;;1.03;0.83;;;20.70;94.50;;;;;;5073239;28;20244;-73
2024/03/22 12:30:36;;;;;;;1.07;1.07;;;20.80;94.00;;;;;;5076927;28;20606;-79
2024/03/22 12:33:03;;;;;;;0.40;0.30;;;20.80;93.90;;;;;;5075758;28;20216;-73
2024/03/22 12:35:32;;;;;;;0.30;0.20;;;20.90;94.10;;;;;;5073494;28;20219;-74
2024/03/22 12:37:58;;;;;;;0.90;0.50;;;20.90;94.10;;;;;;5077939;28;20484;-79
2024/03/22 12:40:23;;;;;;;0.33;0.33;;;20.90;93.50;;;;;;5077289;28;20984;-73
2024/03/22 12:42:49;;;;;;;0.30;0.20;;;20.90;93.00;;;;;;5068252;28;20197;-79
2024/03/22 12:45:15;;;;;;;0.33;0.30;;;20.90;92.90;;;;;;5081069;28;20184;-73
2024/03/22 12:47:41;;;;;;;1.83;1.73;;;20.90;93.10;;;;;;5077278;28;20453;-74
2024/03/22 12:50:07;;;;;;;0.37;0.30;;;20.90;93.20;;;;;;5069536;28;20180;-79
2024/03/22 12:52:33;;;;;;;0.30;0.20;;;21.00;93.70;;;;;;5078195;28;20487;-79
2024/03/22 12:54:58;;;;;;;0.30;0.30;;;21.00;93.60;;;;;;5072839;28;20560;-73
2024/03/22 12:57:24;;;;;;;0.37;0.30;;;21.00;93.40;;;;;;5068420;28;20560;-73
2024/03/22 12:59:50;;;;;;;0.40;0.27;;;21.00;93.70;;;;;;5079389;28;20184;-78
2024/03/22 13:02:16;;;;;;;1.23;0.83;;;21.00;93.70;;;;;;5070650;28;20184;-73
2024/03/22 13:04:43;;;;;;;0.30;0.20;;;21.10;93.70;;;;;;5079308;28;20167;-74
2024/03/22 13:07:08;;;;;;;0.30;0.27;;;21.10;93.60;;;;;;5070846;28;20180;-79
2024/03/22 13:09:34;;;;;;;0.40;0.40;;;21.10;93.60;;;;;;5074104;28;20435;-78
2024/03/22 13:12:00;;;;;;;0.30;0.20;;;21.10;93.60;;;;;;5077330;28;20195;-79
2024/03/22 13:14:27;;;;;;;1.13;1.13;;;21.10;93.70;;;;;;5078282;28;20223;-73
2024/03/22 13:16:53;;;;;;;0.30;0.20;;;21.10;93.60;;;;;;5073725;28;20449;-79
2024/03/22 13:19:18;;;;;;;1.37;1.30;;;21.10;93.30;;;;;;5076974;28;20718;-73
2024/03/22 13:21:47;;;;;;;0.30;0.30;;;21.10;93.30;;;;;;5075098;28;20188;-80
2024/03/22 13:24:13;;;;;;;2.10;2.00;;;21.10;93.30;;;;;;5074838;28;20204;-79
2024/03/22 13:26:39;;;;;;;4.83;1.67;;;21.10;93.30;;;;;;5076458;28;20983;-74
2024/03/22 13:29:04;;;;;;;0.93;0.93;;;21.10;92.90;;;;;;5072443;28;20452;-74
2024/03/22 13:31:30;;;;;;;1.67;1.43;;;21.10;92.80;;;;;;5070795;28;20184;-77
2024/03/22 13:33:56;;;;;;;1.50;0.97;;;21.00;92.80;;;;;;5074828;28;20709;-80
2024/03/22 13:36:22;;;;;;;1.87;1.23;;;21.00;92.80;;;;;;5071802;28;20176;-75
2024/03/22 13:38:48;;;;;;;2.03;1.00;;;20.90;92.60;;;;;;5072514;28;20266;-79
2024/03/22 13:41:13;;;;;;;0.30;0.20;;;20.90;92.70;;;;;;5074402;28;20436;-73
2024/03/22 13:43:40;;;;;;;0.40;0.40;;;20.80;92.80;;;;;;5076782;28;20215;-79
2024/03/22 13:46:05;;;;;;;1.60;0.83;;;20.80;92.90;;;;;;5064494;28;20396;-79
2024/03/22 13:48:31;;;;;;;0.70;0.70;;;20.80;92.90;;;;;;5071170;28;20454;-79
2024/03/22 13:50:58;;;;;;;2.23;2.10;;;20.80;93.10;;;;;;5071723;28;20191;-73
2024/03/22 13:53:23;;;;;;;0.30;0.20;;;20.80;93.10;;;;;;5068216;28;20836;-79
2024/03/22 13:55:50;;;;;;;1.47;0.93;;;20.80;93.10;;;;;;5077295;28;20505;-78
2024/03/22 13:58:16;;;;;;;16.87;7.90;;;20.90;93.00;;;;;;5077071;28;20576;-79
2024/03/22 14:00:42;;;;;;;0.63;0.63;;;20.90;92.80;;;;;;5080044;28;20413;-79